Latest Weather Observations for Gudgenby

IDN60801

Issued at 3:23 pm EDT Tuesday 18 January 2022 (issued every 10 minutes, with the page automatically refreshed every 10 minutes)

About weather observations | Map of weather stations | Latest weather observations for NSW | Other Formats
Station Details ID: 250072 Name: GUDGENBY (PCS) Lat: -35.73 Lon: 148.98 Height: 1035.0 m

Portable automatic weather stations (PAWS) are operated by other organisations, such as Fire and Emergency Services, and are included here by agreement. Portable stations may be deployed to a location for a short period and their location may be subject to change without notice. Wind observations from these stations are provided from heights of either three (3) or ten (10) metres above ground level (AGL).

Data from the previous 72 hours. | See also: Recent months for locations in New South Wales
Date/Time
EDT
Temp
°C
App
Temp
°C
Dew
Point
°C
Rel
Hum
%
Delta-T
°C
Wind Press
QNH
hPa
Press
MSL
hPa
Rain since
9am
mm
Dir  Spd
km/h
Gust
km/h
Spd
kts
Gust
kts
18/03:00pm 19.6 17.8 16.1 80 2.2 N 20 24 11 13 - - 0.2
18/02:30pm 19.5 17.9 16.6 83 1.8 NNE 20 22 11 12 - - 0.2
18/02:00pm 19.4 16.7 16.6 84 1.8 N 26 26 14 14 - - 0.2
18/01:30pm 19.0 16.7 16.6 86 1.5 NNE 24 28 13 15 - - 0.2
18/01:00pm 19.3 18.0 17.3 88 1.3 NNE 20 22 11 12 - - 0.2
18/12:30pm 18.7 18.8 16.6 87 1.3 N 11 19 6 10 - - 0.2
18/12:00pm 18.2 18.1 17.0 93 0.8 N 13 13 7 7 - - 0.2
18/11:30am 18.1 17.6 15.8 86 1.4 NNE 13 17 7 9 - - 0.2
18/11:00am 19.0 17.7 15.9 82 1.9 NE 17 20 9 11 - - 0.0
18/10:30am 18.5 17.0 15.4 82 1.9 NE 17 19 9 10 - - 0.0
18/10:00am 19.3 19.1 15.8 80 2.2 ENE 11 13 6 7 - - 0.0
18/09:30am 20.4 21.0 15.2 72 3.2 N 6 9 3 5 - - 0.0
18/09:00am 19.4 19.8 14.7 74 2.9 NNE 6 9 3 5 - - 0.6
18/08:30am 18.5 19.4 15.2 81 2.0 ENE 4 6 2 3 - - 0.6
18/08:00am 17.6 18.6 15.3 86 1.4 NW 4 6 2 3 - - 0.6
18/07:30am 17.3 18.8 15.6 90 1.0 NNE 2 4 1 2 - - 0.6
18/07:00am 16.8 18.0 13.8 82 1.8 CALM 0 2 0 1 - - 0.6
18/06:30am 16.8 17.4 14.3 85 1.5 ENE 4 6 2 3 - - 0.6
18/06:00am 16.2 17.1 13.9 86 1.4 N 2 4 1 2 - - 0.6
18/05:30am 16.2 15.9 14.4 89 1.1 S 9 9 5 5 - - 0.6
18/05:00am 16.3 16.1 14.7 90 1.0 NNW 9 11 5 6 - - 0.6
18/04:30am 16.6 15.2 14.6 88 1.2 NW 15 19 8 10 - - 0.6
18/04:00am 17.3 17.2 13.9 80 2.0 NW 7 9 4 5 - - 0.6
18/03:30am 17.6 16.6 13.4 76 2.5 W 11 13 6 7 - - 0.6
18/03:00am 17.5 16.4 13.1 75 2.6 N 11 15 6 8 - - 0.6
18/02:30am 17.8 17.0 12.8 72 2.9 N 9 13 5 7 - - 0.4
18/02:00am 18.1 16.5 12.9 71 3.1 W 13 17 7 9 - - 0.4
18/01:30am 17.4 17.4 13.5 78 2.3 ENE 6 11 3 6 - - 0.4
18/01:00am 16.8 17.4 14.2 85 1.6 ESE 4 7 2 4 - - 0.4
18/12:30am 16.9 17.4 13.9 82 1.8 N 4 6 2 3 - - 0.4
18/12:00am 17.1 17.1 14.1 82 1.8 ESE 7 13 4 7 - - 0.4
 
Date/Time
EDT
Temp
°C
App
Temp
°C
Dew
Point
°C
Rel
Hum
%
Delta-T
°C
Wind Press
QNH
hPa
Press
MSL
hPa
Rain since
9am
mm
Dir  Spd
km/h
Gust
km/h
Spd
kts
Gust
kts
17/11:30pm 17.2 17.2 14.2 82 1.8 S 7 9 4 5 - - 0.4
17/11:00pm 17.2 16.3 13.8 80 2.0 ESE 11 13 6 7 - - 0.4
17/10:30pm 18.3 17.9 14.1 76 2.5 S 9 13 5 7 - - 0.4
17/10:00pm 18.6 18.0 13.4 72 3.1 SW 9 15 5 8 - - 0.4
17/09:30pm 18.8 18.1 13.3 70 3.3 W 9 20 5 11 - - 0.4
17/09:00pm 18.0 17.9 14.0 77 2.4 W 7 9 4 5 - - 0.4
17/08:30pm 17.9 17.9 14.2 79 2.2 ESE 7 13 4 7 - - 0.4
17/08:00pm 18.3 18.5 14.6 79 2.2 SSE 7 11 4 6 - - 0.4
17/07:30pm 19.4 18.5 13.7 69 3.4 SSW 11 15 6 8 - - 0.4
17/07:00pm 20.2 19.2 13.3 64 4.1 SW 11 15 6 8 - - 0.4
17/06:30pm 20.8 20.8 14.3 66 4.0 SW 7 9 4 5 - - 0.4
17/06:00pm 21.4 19.7 14.7 65 4.1 WSW 17 22 9 12 - - 0.4
17/05:30pm 22.3 22.6 14.9 63 4.6 SW 7 15 4 8 - - 0.4
17/05:00pm 21.7 22.1 14.7 64 4.3 WNW 6 9 3 5 - - 0.2
17/04:30pm 21.8 22.1 13.5 59 5.0 NW 4 6 2 3 - - 0.2
17/04:00pm 21.3 21.8 13.9 62 4.5 NW 4 6 2 3 - - 0.2
17/03:30pm 21.4 20.1 12.5 57 5.3 NW 11 24 6 13 - - 0.2
17/03:00pm 21.2 20.7 12.6 58 5.1 ESE 7 15 4 8 - - 0.2
17/02:30pm 21.1 19.9 12.8 59 4.9 NNW 11 15 6 8 - - 0.2
17/02:00pm 21.0 19.4 12.8 59 4.9 NNE 13 22 7 12 - - 0.2
17/01:30pm 21.6 21.1 12.6 56 5.4 NNE 7 15 4 8 - - 0.2
17/01:00pm 22.3 21.2 11.8 51 6.2 S 9 17 5 9 - - 0.2
17/12:30pm 22.7 20.8 11.7 49 6.5 W 13 17 7 9 - - 0.2
17/12:00pm 23.1 20.3 11.2 47 7.0 W 17 22 9 12 - - 0.2
17/11:30am 23.9 21.3 9.4 39 8.3 W 13 22 7 12 - - 0.2
17/11:00am 24.1 21.9 9.2 38 8.5 SW 11 22 6 12 - - 0.2
17/10:30am 22.8 22.6 11.9 50 6.4 SW 4 6 2 3 - - 0.2
17/10:00am 21.8 22.2 13.7 60 4.9 SSE 4 6 2 3 - - 0.2
17/09:30am 20.0 20.8 14.9 72 3.1 WSW 4 7 2 4 - - 0.0
17/09:00am 19.6 20.8 14.8 74 2.9 SE 2 4 1 2 - - 0.6
17/08:30am 19.2 20.3 15.5 79 2.3 W 4 4 2 2 - - 0.6
17/08:00am 16.2 17.0 14.8 91 0.8 N 4 4 2 2 - - 0.6
17/07:30am 14.9 15.1 14.3 96 0.4 SSW 6 7 3 4 - - 0.6
17/07:00am 14.9 15.6 14.6 98 0.2 NNW 4 6 2 3 - - 0.6
17/06:30am 14.9 15.6 14.4 97 0.3 E 4 4 2 2 - - 0.6
17/06:00am 15.1 16.2 14.6 97 0.3 WNW 2 4 1 2 - - 0.6
17/05:30am 15.3 16.5 15.0 98 0.2 N 2 2 1 1 - - 0.6
17/05:00am 15.0 16.1 14.7 98 0.2 S 2 4 1 2 - - 0.6
17/04:30am 15.0 16.2 14.9 99 0.1 NW 2 4 1 2 - - 0.6
17/04:00am 14.6 15.6 14.3 98 0.2 NW 2 4 1 2 - - 0.6
17/03:30am 14.4 15.3 14.0 97 0.2 W 2 4 1 2 - - 0.6
17/03:00am 14.7 14.8 13.8 94 0.5 SSW 6 7 3 4 - - 0.6
17/02:30am 15.0 15.0 13.6 91 0.8 SSW 6 7 3 4 - - 0.6
17/02:00am 15.4 16.5 14.5 94 0.5 E 2 6 1 3 - - 0.6
17/01:30am 15.4 15.5 14.0 91 0.8 S 6 6 3 3 - - 0.6
17/01:00am 15.7 15.9 13.1 84 1.5 E 4 7 2 4 - - 0.6
17/12:30am 16.5 17.0 14.9 90 1.0 NE 6 7 3 4 - - 0.4
17/12:00am 16.6 16.9 13.4 81 1.9 N 4 6 2 3 - - 0.4
 
Date/Time
EDT
Temp
°C
App
Temp
°C
Dew
Point
°C
Rel
Hum
%
Delta-T
°C
Wind Press
QNH
hPa
Press
MSL
hPa
Rain since
9am
mm
Dir  Spd
km/h
Gust
km/h
Spd
kts
Gust
kts
16/11:30pm 16.6 16.1 10.7 68 3.3 E 4 4 2 2 - - 0.4
16/11:00pm 17.5 16.8 10.2 62 4.1 SE 4 4 2 2 - - 0.4
16/10:30pm 16.5 15.8 11.3 71 3.0 SE 6 7 3 4 - - 0.4
16/10:00pm 17.9 17.0 9.1 56 4.8 NW 4 6 2 3 - - 0.4
16/09:30pm 18.9 17.8 8.5 51 5.7 NW 4 6 2 3 - - 0.4
16/09:00pm 20.0 19.2 11.0 56 5.2 SSE 6 7 3 4 - - 0.4
16/08:30pm 21.7 20.3 7.4 39 7.8 SE 4 6 2 3 - - 0.4
16/08:00pm 23.6 22.6 7.2 35 9.0 SSE 2 4 1 2 - - 0.4
16/07:30pm 25.0 23.0 7.3 32 9.8 W 7 7 4 4 - - 0.4
16/07:00pm 26.5 25.7 11.1 38 9.1 WNW 6 9 3 5 - - 0.4
16/06:30pm 28.0 26.6 5.6 24 12.2 SSE 2 4 1 2 - - 0.4
16/06:00pm 27.2 24.6 6.3 26 11.5 WSW 9 11 5 6 - - 0.4
16/05:30pm 27.6 25.1 8.0 29 11.1 SW 11 15 6 8 - - 0.4
16/05:00pm 27.2 24.1 7.4 28 11.1 SSW 13 22 7 12 - - 0.2
16/04:30pm 28.0 26.9 10.8 34 10.2 W 7 17 4 9 - - 0.2
16/04:00pm 27.6 25.6 8.8 30 10.8 SW 9 13 5 7 - - 0.2
16/03:30pm 27.3 24.4 8.3 30 10.8 WSW 13 20 7 11 - - 0.2
16/03:00pm 27.3 24.4 8.3 30 10.8 WSW 13 17 7 9 - - 0.2
16/02:30pm 26.7 24.1 9.5 34 9.9 W 13 17 7 9 - - 0.2
16/02:00pm 24.9 23.8 14.4 52 6.5 NE 13 17 7 9 - - 0.2
16/01:30pm 24.1 23.1 17.9 68 4.0 NE 20 22 11 12 - - 0.2
16/01:00pm 23.4 22.7 17.4 69 3.9 NE 17 20 9 11 - - 0.2
16/12:30pm 22.6 21.6 18.0 75 3.0 NNE 20 24 11 13 - - 0.2
16/12:00pm 22.0 19.8 16.9 73 3.3 NE 24 28 13 15 - - 0.2
16/11:30am 22.1 20.5 17.4 74 3.0 NNE 22 26 12 14 - - 0.2
16/11:00am 22.0 20.6 17.0 73 3.2 NNE 20 24 11 13 - - 0.2
16/10:30am 21.4 19.5 16.8 75 2.9 NNE 22 24 12 13 - - 0.2
16/10:00am 20.8 19.2 16.4 76 2.8 NE 20 22 11 12 - - 0.2
16/09:30am 20.4 19.0 16.5 78 2.5 NE 19 20 10 11 - - 0.0
16/09:00am 20.7 21.7 16.4 76 2.7 NNE 6 9 3 5 - - 0.6
16/08:30am 19.5 21.2 16.2 81 2.1 ESE 2 4 1 2 - - 0.6
16/08:00am 16.9 18.1 14.9 88 1.2 S 2 4 1 2 - - 0.6
16/07:30am 15.1 16.1 14.3 95 0.5 SSE 2 4 1 2 - - 0.6
16/07:00am 13.1 13.3 12.9 99 0.1 SE 4 6 2 3 - - 0.6
16/06:30am 12.1 12.4 12.1 100 0.0 W 2 4 1 2 - - 0.6
16/06:00am 12.7 13.2 12.7 100 0.0 S 2 4 1 2 - - 0.6
16/05:30am 13.2 13.8 13.2 100 0.0 W 2 2 1 1 - - 0.6
16/05:00am 12.7 12.8 12.7 100 0.0 SE 4 4 2 2 - - 0.6
16/04:30am 13.3 14.0 13.3 100 0.0 SE 2 4 1 2 - - 0.6
16/04:00am 13.5 13.8 13.5 100 0.0 NW 4 4 2 2 - - 0.6
16/03:30am 13.2 13.1 13.2 100 0.0 S 6 7 3 4 - - 0.6
16/03:00am 13.1 12.9 13.0 99 0.1 SSE 6 7 3 4 - - 0.4
16/02:30am 14.1 14.5 13.8 98 0.2 N 4 4 2 2 - - 0.4
16/02:00am 13.8 14.1 13.5 98 0.2 WNW 4 7 2 4 - - 0.4
16/01:30am 14.8 15.3 14.1 96 0.4 SSE 4 6 2 3 - - 0.4
16/01:00am 14.8 15.3 14.0 95 0.5 E 4 7 2 4 - - 0.4
16/12:30am 14.7 15.2 14.1 96 0.4 ESE 4 6 2 3 - - 0.4
16/12:00am 15.4 16.0 14.2 92 0.7 SW 4 7 2 4 - - 0.4
 
Date/Time
EDT
Temp
°C
App
Temp
°C
Dew
Point
°C
Rel
Hum
%
Delta-T
°C
Wind Press
QNH
hPa
Press
MSL
hPa
Rain since
9am
mm
Dir  Spd
km/h
Gust
km/h
Spd
kts
Gust
kts
15/11:30pm 15.4 16.0 14.3 93 0.7 NW 4 6 2 3 - - 0.4
15/11:00pm 16.7 16.9 14.3 86 1.4 SSE 6 6 3 3 - - 0.4
15/10:30pm 16.9 18.0 14.5 86 1.4 W 2 4 1 2 - - 0.4
15/10:00pm 17.4 17.4 14.3 82 1.9 SSE 7 7 4 4 - - 0.4
15/09:30pm 17.9 18.3 14.8 82 1.9 S 6 7 3 4 - - 0.4
15/09:00pm 19.7 19.4 14.4 71 3.2 SW 9 11 5 6 - - 0.4
15/08:30pm 20.5 20.2 14.5 68 3.7 WNW 9 11 5 6 - - 0.4
15/08:00pm 21.8 22.1 13.4 59 5.1 WNW 4 6 2 3 - - 0.4
15/07:30pm 22.1 22.1 15.3 65 4.2 WNW 9 13 5 7 - - 0.4
15/07:00pm 22.6 21.7 14.9 61 4.8 WNW 13 17 7 9 - - 0.4
15/06:30pm 23.7 24.3 14.3 55 5.8 N 4 6 2 3 - - 0.2
15/06:00pm 23.2 22.8 13.1 53 6.1 W 7 9 4 5 - - 0.2
15/05:30pm 24.9 23.7 14.0 50 6.7 W 13 17 7 9 - - 0.2
15/05:00pm 25.3 23.7 12.9 46 7.5 W 13 20 7 11 - - 0.2
15/04:30pm 24.9 22.0 12.3 45 7.6 SW 19 22 10 12 - - 0.2
15/04:00pm 25.4 23.3 12.4 44 7.8 W 15 19 8 10 - - 0.2
15/03:30pm 24.4 22.8 16.6 61 5.0 NW 20 26 11 14 - - 0.2

Other formats

Comma delimited format used in spreadsheet applications
http://www.bom.gov.au/fwo/IDN60801/IDN60801.99765.axf

JavaScript Object Notation format (JSON) in row-major order
http://www.bom.gov.au/fwo/IDN60801/IDN60801.99765.json

Data quality

Most of these data are generated automatically and are frequently updated. Quality checks on data are not normally performed. It is possible for incorrect values to appear. Refer to information at About Latest Weather Observations and please check the disclaimer before using these data.